createdAt,value
2023-03-08T07:20:21.940Z,34.45
2023-03-08T07:37:13.447Z,28.03
2023-03-08T07:42:07.179Z,29.07
2023-03-08T07:47:00.725Z,32.27
2023-03-08T07:51:54.772Z,23.97
2023-03-08T07:56:49.692Z,27.37
2023-03-08T08:01:43.239Z,21.80
2023-03-08T08:06:37.590Z,26.13
2023-03-08T08:11:31.172Z,20.77
2023-03-08T08:16:26.557Z,26.20
2023-03-08T08:21:20.241Z,24.83
2023-03-08T08:26:15.802Z,25.23
2023-03-08T08:31:10.975Z,27.50
2023-03-08T08:36:08.810Z,24.10
2023-03-08T08:41:02.999Z,28.17
2023-03-08T08:45:59.670Z,19.13
2023-03-08T08:50:53.686Z,22.53
2023-03-08T08:55:48.780Z,21.50
2023-03-08T09:00:42.708Z,15.23
2023-03-08T09:05:40.441Z,16.40
2023-03-08T09:10:37.344Z,18.33
2023-03-08T09:15:32.650Z,14.57
2023-03-08T09:20:26.126Z,17.50
2023-03-08T09:25:23.940Z,18.60
2023-03-08T09:30:18.723Z,19.17
2023-03-08T09:35:16.325Z,16.37
2023-03-08T09:40:19.974Z,14.43
2023-03-08T09:45:24.833Z,16.90
2023-03-08T09:50:35.264Z,15.87
2023-03-08T09:55:32.965Z,14.07
2023-03-08T10:00:31.940Z,16.80
2023-03-08T10:05:31.607Z,14.50
2023-03-08T10:10:38.657Z,17.30
2023-03-08T10:15:34.644Z,15.47
2023-03-08T10:20:32.579Z,16.67
2023-03-08T10:25:31.792Z,13.10
2023-03-08T10:30:27.814Z,15.20
2023-03-08T10:35:34.547Z,13.63
2023-03-08T10:40:28.491Z,13.83
2023-03-08T10:45:24.533Z,15.87
2023-03-08T10:50:21.009Z,13.00
2023-03-08T10:55:22.774Z,17.77
2023-03-08T11:00:35.178Z,12.70
2023-03-08T11:05:28.662Z,14.63
2023-03-08T11:10:28.208Z,15.73
2023-03-08T11:15:25.201Z,12.33
2023-03-08T11:20:25.022Z,14.23
2023-03-08T11:25:33.399Z,15.73
2023-03-08T11:30:37.543Z,13.47
2023-03-08T11:35:36.955Z,13.17
2023-03-08T11:40:41.672Z,14.73
2023-03-08T11:45:40.613Z,14.20
2023-03-08T11:50:38.244Z,15.03
2023-03-08T11:56:10.721Z,14.27
2023-03-08T12:01:10.845Z,15.83
2023-03-08T12:06:26.464Z,15.33
2023-03-08T12:11:28.132Z,14.50
2023-03-08T12:16:27.207Z,15.43
2023-03-08T12:21:28.731Z,14.83
2023-03-08T12:26:27.340Z,16.27
2023-03-08T12:31:29.661Z,17.00
2023-03-08T12:36:24.904Z,15.53
2023-03-08T12:41:27.844Z,15.67
2023-03-08T12:46:21.604Z,16.40
2023-03-08T12:51:25.295Z,13.73
2023-03-08T12:56:25.186Z,15.17
2023-03-08T13:01:38.439Z,13.03
2023-03-08T13:07:18.858Z,13.83
2023-03-08T13:12:26.744Z,15.60
2023-03-08T13:17:42.238Z,14.37
2023-03-08T13:22:44.918Z,13.60
2023-03-08T13:27:48.750Z,13.70
2023-03-08T13:32:42.448Z,22.27
2023-03-08T13:37:37.461Z,17.60
2023-03-08T13:42:31.570Z,13.47
2023-03-08T13:47:27.643Z,14.53
2023-03-08T13:52:23.681Z,11.17
2023-03-08T13:57:24.401Z,12.48
2023-03-08T14:02:24.701Z,11.80
2023-03-08T14:07:24.484Z,13.38
2023-03-08T14:12:23.503Z,9.90
2023-03-08T14:17:22.625Z,9.40
2023-03-08T14:22:36.212Z,6.88
2023-03-08T14:27:52.230Z,7.60
2023-03-08T14:33:01.553Z,6.97
2023-03-08T14:37:59.197Z,5.85
2023-03-08T14:42:57.621Z,6.03
2023-03-08T14:47:54.229Z,6.72
2023-03-08T14:52:50.450Z,7.18
2023-03-08T14:57:44.117Z,6.75
2023-03-08T15:02:39.136Z,4.68
2023-03-08T15:07:35.800Z,7.95
2023-03-08T15:12:29.509Z,5.80
2023-03-08T15:17:23.070Z,4.78
2023-03-08T15:22:23.479Z,7.07
2023-03-08T15:32:32.233Z,5.17
2023-03-08T15:37:28.487Z,5.50
2023-03-08T15:42:32.812Z,6.97
2023-03-08T15:47:42.342Z,7.57
2023-03-08T15:52:37.521Z,6.87
2023-03-08T15:57:46.174Z,6.00
2023-03-08T16:02:42.374Z,5.80
2023-03-08T16:07:40.657Z,6.07
2023-03-08T16:12:43.207Z,5.90
2023-03-08T16:17:39.054Z,5.27
2023-03-08T16:22:33.632Z,5.20
2023-03-08T16:27:45.808Z,6.97
2023-03-08T16:32:40.235Z,5.40
2023-03-08T16:37:36.087Z,5.63
2023-03-08T16:42:31.766Z,9.93
2023-03-08T16:47:26.222Z,6.37
2023-03-08T16:52:20.050Z,6.43
2023-03-08T16:57:21.894Z,6.77
2023-03-08T17:02:25.866Z,5.67
2023-03-08T17:07:20.523Z,5.83
2023-03-08T17:12:13.983Z,6.63
2023-03-08T17:17:07.592Z,7.23
2023-03-08T17:22:03.683Z,8.27
2023-03-08T17:26:57.376Z,4.93
2023-03-08T17:31:53.936Z,6.07
2023-03-08T17:36:47.515Z,7.20
2023-03-08T17:41:43.143Z,6.80
2023-03-08T17:46:50.714Z,9.57
2023-03-08T17:51:48.391Z,5.87
2023-03-08T17:56:44.049Z,5.80
2023-03-08T18:01:39.732Z,4.93
2023-03-08T18:06:36.550Z,5.70
2023-03-08T18:11:30.354Z,7.37
2023-03-08T18:16:25.733Z,4.07
2023-03-08T18:21:21.000Z,4.70
2023-03-08T18:26:16.237Z,4.13
2023-03-08T18:31:10.790Z,6.10
2023-03-08T18:36:06.479Z,4.80
